sensor_id;sensor_type;location;lat;lon;timestamp;pressure;altitude;pressure_sealevel;temperature;humidity
10464;BME280;5279;42.048;24.638;2023-06-14T00:00:50;97128.81;;;19.02;100.00
10464;BME280;5279;42.048;24.638;2023-06-14T00:03:18;97127.34;;;19.06;100.00
10464;BME280;5279;42.048;24.638;2023-06-14T00:05:47;97125.28;;;19.08;100.00
10464;BME280;5279;42.048;24.638;2023-06-14T00:08:18;97121.13;;;19.12;100.00
10464;BME280;5279;42.048;24.638;2023-06-14T00:10:46;97122.97;;;19.18;100.00
10464;BME280;5279;42.048;24.638;2023-06-14T00:13:13;97119.25;;;19.19;100.00
10464;BME280;5279;42.048;24.638;2023-06-14T00:15:40;97128.75;;;19.22;100.00
10464;BME280;5279;42.048;24.638;2023-06-14T00:18:08;97131.25;;;19.23;100.00
10464;BME280;5279;42.048;24.638;2023-06-14T00:20:37;97123.38;;;19.28;100.00
10464;BME280;5279;42.048;24.638;2023-06-14T00:23:05;97119.25;;;19.32;100.00
10464;BME280;5279;42.048;24.638;2023-06-14T00:25:33;97122.53;;;19.34;100.00
10464;BME280;5279;42.048;24.638;2023-06-14T00:28:00;97125.81;;;19.36;100.00
10464;BME280;5279;42.048;24.638;2023-06-14T00:30:27;97114.28;;;19.36;100.00
10464;BME280;5279;42.048;24.638;2023-06-14T00:32:56;97119.41;;;19.37;100.00
10464;BME280;5279;42.048;24.638;2023-06-14T00:35:23;97119.84;;;19.41;100.00
10464;BME280;5279;42.048;24.638;2023-06-14T00:37:51;97119.03;;;19.40;100.00
10464;BME280;5279;42.048;24.638;2023-06-14T00:40:20;97117.56;;;19.38;100.00
10464;BME280;5279;42.048;24.638;2023-06-14T00:42:48;97113.03;;;19.25;100.00
10464;BME280;5279;42.048;24.638;2023-06-14T00:45:15;97111.44;;;19.11;100.00
10464;BME280;5279;42.048;24.638;2023-06-14T00:47:43;97109.78;;;19.10;100.00
10464;BME280;5279;42.048;24.638;2023-06-14T00:50:10;97107.31;;;19.08;100.00
10464;BME280;5279;42.048;24.638;2023-06-14T00:52:39;97106.06;;;19.04;100.00
10464;BME280;5279;42.048;24.638;2023-06-14T00:55:06;97101.97;;;19.02;100.00
10464;BME280;5279;42.048;24.638;2023-06-14T00:57:33;97108.78;;;18.98;100.00
10464;BME280;5279;42.048;24.638;2023-06-14T01:00:05;97109.00;;;18.90;100.00
10464;BME280;5279;42.048;24.638;2023-06-14T01:02:35;97113.13;;;18.86;100.00
10464;BME280;5279;42.048;24.638;2023-06-14T01:05:02;97106.50;;;18.82;100.00
10464;BME280;5279;42.048;24.638;2023-06-14T01:07:46;97108.59;;;18.80;100.00
10464;BME280;5279;42.048;24.638;2023-06-14T01:10:25;97107.97;;;18.78;100.00
10464;BME280;5279;42.048;24.638;2023-06-14T01:12:58;97103.22;;;18.73;100.00
10464;BME280;5279;42.048;24.638;2023-06-14T01:15:31;97102.41;;;18.73;100.00
10464;BME280;5279;42.048;24.638;2023-06-14T01:17:58;97112.31;;;18.66;100.00
10464;BME280;5279;42.048;24.638;2023-06-14T01:20:29;97099.50;;;18.54;100.00
10464;BME280;5279;42.048;24.638;2023-06-14T01:22:58;97113.56;;;18.57;100.00
10464;BME280;5279;42.048;24.638;2023-06-14T01:25:25;97108.63;;;18.53;100.00
10464;BME280;5279;42.048;24.638;2023-06-14T01:27:56;97105.28;;;18.51;100.00
10464;BME280;5279;42.048;24.638;2023-06-14T01:30:24;97101.53;;;18.39;100.00
10464;BME280;5279;42.048;24.638;2023-06-14T01:32:53;97103.81;;;18.29;100.00
10464;BME280;5279;42.048;24.638;2023-06-14T01:35:21;97104.03;;;18.15;100.00
10464;BME280;5279;42.048;24.638;2023-06-14T01:37:49;97108.97;;;18.11;100.00
10464;BME280;5279;42.048;24.638;2023-06-14T01:40:18;97098.59;;;17.95;100.00
10464;BME280;5279;42.048;24.638;2023-06-14T01:42:46;97105.63;;;17.96;100.00
10464;BME280;5279;42.048;24.638;2023-06-14T01:45:14;97102.31;;;17.94;100.00
10464;BME280;5279;42.048;24.638;2023-06-14T01:47:43;97103.56;;;17.98;100.00
10464;BME280;5279;42.048;24.638;2023-06-14T01:50:10;97103.16;;;18.01;100.00
10464;BME280;5279;42.048;24.638;2023-06-14T01:52:37;97105.63;;;18.09;100.00
10464;BME280;5279;42.048;24.638;2023-06-14T01:55:06;97097.81;;;18.14;100.00
10464;BME280;5279;42.048;24.638;2023-06-14T01:57:34;97108.34;;;18.22;100.00
10464;BME280;5279;42.048;24.638;2023-06-14T02:00:01;97103.00;;;18.29;100.00
10464;BME280;5279;42.048;24.638;2023-06-14T02:02:29;97103.63;;;18.37;100.00
10464;BME280;5279;42.048;24.638;2023-06-14T02:04:56;97107.97;;;18.45;100.00
10464;BME280;5279;42.048;24.638;2023-06-14T02:07:23;97104.03;;;18.47;100.00
10464;BME280;5279;42.048;24.638;2023-06-14T02:09:50;97101.13;;;18.42;100.00
10464;BME280;5279;42.048;24.638;2023-06-14T02:12:17;97101.16;;;18.49;100.00
10464;BME280;5279;42.048;24.638;2023-06-14T02:14:46;97107.75;;;18.46;100.00
10464;BME280;5279;42.048;24.638;2023-06-14T02:17:13;97105.66;;;18.48;100.00
10464;BME280;5279;42.048;24.638;2023-06-14T02:19:41;97105.66;;;18.48;100.00
10464;BME280;5279;42.048;24.638;2023-06-14T02:22:08;97106.13;;;18.52;100.00
10464;BME280;5279;42.048;24.638;2023-06-14T02:24:35;97111.91;;;18.55;100.00
10464;BME280;5279;42.048;24.638;2023-06-14T02:27:04;97107.38;;;18.49;100.00
10464;BME280;5279;42.048;24.638;2023-06-14T02:29:32;97098.25;;;18.37;100.00
10464;BME280;5279;42.048;24.638;2023-06-14T02:32:00;97096.59;;;18.36;100.00
10464;BME280;5279;42.048;24.638;2023-06-14T02:34:27;97103.63;;;18.44;100.00
10464;BME280;5279;42.048;24.638;2023-06-14T02:36:54;97102.00;;;18.49;100.00
10464;BME280;5279;42.048;24.638;2023-06-14T02:39:21;97104.03;;;18.47;100.00
10464;BME280;5279;42.048;24.638;2023-06-14T02:41:48;97110.66;;;18.51;100.00
10464;BME280;5279;42.048;24.638;2023-06-14T02:44:17;97104.88;;;18.48;100.00
10464;BME280;5279;42.048;24.638;2023-06-14T02:46:44;97106.50;;;18.42;100.00
10464;BME280;5279;42.048;24.638;2023-06-14T02:49:13;97109.41;;;18.47;100.00
10464;BME280;5279;42.048;24.638;2023-06-14T02:51:40;97114.13;;;18.45;100.00
10464;BME280;5279;42.048;24.638;2023-06-14T02:54:07;97123.84;;;18.27;100.00
10464;BME280;5279;42.048;24.638;2023-06-14T02:56:34;97121.34;;;18.25;100.00
10464;BME280;5279;42.048;24.638;2023-06-14T02:59:01;97124.63;;;18.27;100.00
10464;BME280;5279;42.048;24.638;2023-06-14T03:01:29;97134.94;;;18.11;100.00
10464;BME280;5279;42.048;24.638;2023-06-14T03:04:00;97128.75;;;18.10;100.00
10464;BME280;5279;42.048;24.638;2023-06-14T03:06:28;97128.31;;;18.07;100.00
10464;BME280;5279;42.048;24.638;2023-06-14T03:08:56;97132.66;;;18.01;100.00
10464;BME280;5279;42.048;24.638;2023-06-14T03:11:25;97137.38;;;17.92;100.00
10464;BME280;5279;42.048;24.638;2023-06-14T03:13:52;97145.19;;;17.94;100.00
10464;BME280;5279;42.048;24.638;2023-06-14T03:16:19;97141.28;;;17.90;100.00
10464;BME280;5279;42.048;24.638;2023-06-14T03:18:48;97139.41;;;17.84;100.00
10464;BME280;5279;42.048;24.638;2023-06-14T03:21:15;97152.59;;;17.85;100.00
10464;BME280;5279;42.048;24.638;2023-06-14T03:23:47;97148.69;;;17.88;100.00
10464;BME280;5279;42.048;24.638;2023-06-14T03:26:15;97145.59;;;17.91;100.00
10464;BME280;5279;42.048;24.638;2023-06-14T03:28:43;97148.91;;;17.99;100.00
10464;BME280;5279;42.048;24.638;2023-06-14T03:31:10;97154.50;;;17.98;100.00
10464;BME280;5279;42.048;24.638;2023-06-14T03:33:37;97157.38;;;17.96;100.00
10464;BME280;5279;42.048;24.638;2023-06-14T03:36:05;97158.19;;;17.97;100.00
10464;BME280;5279;42.048;24.638;2023-06-14T03:38:33;97155.50;;;17.97;100.00
10464;BME280;5279;42.048;24.638;2023-06-14T03:41:02;97154.28;;;17.99;100.00
10464;BME280;5279;42.048;24.638;2023-06-14T03:43:29;97161.72;;;18.04;100.00
10464;BME280;5279;42.048;24.638;2023-06-14T03:45:56;97165.41;;;17.96;100.00
10464;BME280;5279;42.048;24.638;2023-06-14T03:48:23;97169.13;;;17.95;100.00
10464;BME280;5279;42.048;24.638;2023-06-14T03:50:50;97166.25;;;17.97;100.00
10464;BME280;5279;42.048;24.638;2023-06-14T03:53:17;97170.97;;;17.95;100.00
10464;BME280;5279;42.048;24.638;2023-06-14T03:55:45;97176.78;;;17.98;100.00
10464;BME280;5279;42.048;24.638;2023-06-14T03:58:15;97167.47;;;17.94;100.00
10464;BME280;5279;42.048;24.638;2023-06-14T04:00:42;97176.34;;;17.95;100.00
10464;BME280;5279;42.048;24.638;2023-06-14T04:03:09;97176.13;;;17.90;100.00
10464;BME280;5279;42.048;24.638;2023-06-14T04:05:35;97163.41;;;18.05;100.00
10464;BME280;5279;42.048;24.638;2023-06-14T04:08:02;97172.91;;;18.14;100.00
10464;BME280;5279;42.048;24.638;2023-06-14T04:10:29;97172.72;;;18.29;100.00
10464;BME280;5279;42.048;24.638;2023-06-14T04:12:56;97174.19;;;18.31;100.00
10464;BME280;5279;42.048;24.638;2023-06-14T04:15:34;97169.03;;;18.30;100.00
10464;BME280;5279;42.048;24.638;2023-06-14T04:18:01;97176.44;;;18.34;100.00
10464;BME280;5279;42.048;24.638;2023-06-14T04:20:28;97161.16;;;18.28;100.00
10464;BME280;5279;42.048;24.638;2023-06-14T04:22:56;97177.31;;;18.41;100.00
10464;BME280;5279;42.048;24.638;2023-06-14T04:25:23;97179.41;;;18.52;100.00
10464;BME280;5279;42.048;24.638;2023-06-14T04:27:51;97180.66;;;18.63;100.00
10464;BME280;5279;42.048;24.638;2023-06-14T04:30:18;97183.75;;;18.80;100.00
10464;BME280;5279;42.048;24.638;2023-06-14T04:32:48;97161.88;;;18.83;100.00
10464;BME280;5279;42.048;24.638;2023-06-14T04:35:19;97177.56;;;19.05;100.00
10464;BME280;5279;42.048;24.638;2023-06-14T04:37:46;97186.59;;;19.24;100.00
10464;BME280;5279;42.048;24.638;2023-06-14T04:40:13;97187.88;;;19.41;100.00
10464;BME280;5279;42.048;24.638;2023-06-14T04:42:40;97191.97;;;19.50;100.00
10464;BME280;5279;42.048;24.638;2023-06-14T04:45:10;97185.09;;;19.68;100.00
10464;BME280;5279;42.048;24.638;2023-06-14T04:47:38;97191.47;;;19.80;100.00
10464;BME280;5279;42.048;24.638;2023-06-14T04:50:08;97192.25;;;19.93;100.00
10464;BME280;5279;42.048;24.638;2023-06-14T04:52:36;97198.38;;;20.07;100.00
10464;BME280;5279;42.048;24.638;2023-06-14T04:55:04;97201.44;;;20.17;100.00
10464;BME280;5279;42.048;24.638;2023-06-14T04:57:32;97204.53;;;20.27;100.00
10464;BME280;5279;42.048;24.638;2023-06-14T04:59:58;97200.72;;;20.41;100.00
10464;BME280;5279;42.048;24.638;2023-06-14T05:02:26;97202.31;;;20.49;100.00
10464;BME280;5279;42.048;24.638;2023-06-14T05:04:54;97208.47;;;20.62;100.00
10464;BME280;5279;42.048;24.638;2023-06-14T05:07:24;97208.81;;;20.73;100.00
10464;BME280;5279;42.048;24.638;2023-06-14T05:09:51;97203.75;;;20.83;100.00
10464;BME280;5279;42.048;24.638;2023-06-14T05:12:17;97223.09;;;20.98;100.00
10464;BME280;5279;42.048;24.638;2023-06-14T05:14:45;97218.69;;;21.10;100.00
10464;BME280;5279;42.048;24.638;2023-06-14T05:17:11;97219.03;;;21.20;100.00
10464;BME280;5279;42.048;24.638;2023-06-14T05:19:38;97220.41;;;21.29;100.00
10464;BME280;5279;42.048;24.638;2023-06-14T05:22:05;97229.25;;;21.36;100.00
10464;BME280;5279;42.048;24.638;2023-06-14T05:24:33;97236.47;;;21.42;100.00
10464;BME280;5279;42.048;24.638;2023-06-14T05:27:00;97225.31;;;21.57;100.00
10464;BME280;5279;42.048;24.638;2023-06-14T05:29:27;97228.41;;;21.60;100.00
10464;BME280;5279;42.048;24.638;2023-06-14T05:31:54;97227.06;;;21.69;100.00
10464;BME280;5279;42.048;24.638;2023-06-14T05:34:21;97228.25;;;21.73;100.00
10464;BME280;5279;42.048;24.638;2023-06-14T05:36:48;97242.28;;;21.82;100.00
10464;BME280;5279;42.048;24.638;2023-06-14T05:39:14;97237.69;;;21.83;100.00
10464;BME280;5279;42.048;24.638;2023-06-14T05:41:43;97248.38;;;21.96;100.00
10464;BME280;5279;42.048;24.638;2023-06-14T05:44:10;97246.13;;;21.93;100.00
10464;BME280;5279;42.048;24.638;2023-06-14T05:46:37;97251.38;;;22.06;100.00
10464;BME280;5279;42.048;24.638;2023-06-14T05:49:05;97242.81;;;22.09;100.00
10464;BME280;5279;42.048;24.638;2023-06-14T05:51:32;97254.38;;;22.34;100.00
10464;BME280;5279;42.048;24.638;2023-06-14T05:53:59;97253.13;;;22.48;100.00
10464;BME280;5279;42.048;24.638;2023-06-14T05:56:26;97251.47;;;22.47;100.00
10464;BME280;5279;42.048;24.638;2023-06-14T05:58:54;97256.44;;;22.62;100.00
10464;BME280;5279;42.048;24.638;2023-06-14T06:01:21;97252.94;;;22.79;100.00
10464;BME280;5279;42.048;24.638;2023-06-14T06:03:48;97258.66;;;22.71;100.00
10464;BME280;5279;42.048;24.638;2023-06-14T06:06:15;97254.16;;;22.65;100.00
10464;BME280;5279;42.048;24.638;2023-06-14T06:08:42;97248.44;;;22.73;100.00
10464;BME280;5279;42.048;24.638;2023-06-14T06:11:09;97243.50;;;22.70;100.00
10464;BME280;5279;42.048;24.638;2023-06-14T06:13:51;97250.84;;;22.93;100.00
10464;BME280;5279;42.048;24.638;2023-06-14T06:16:20;97252.44;;;23.12;100.00
10464;BME280;5279;42.048;24.638;2023-06-14T06:18:46;97262.31;;;23.30;100.00
10464;BME280;5279;42.048;24.638;2023-06-14T06:21:13;97252.97;;;23.44;100.00
10464;BME280;5279;42.048;24.638;2023-06-14T06:23:41;97261.78;;;23.51;100.00
10464;BME280;5279;42.048;24.638;2023-06-14T06:26:08;97258.97;;;23.58;100.00
10464;BME280;5279;42.048;24.638;2023-06-14T06:28:35;97258.13;;;23.69;100.00
10464;BME280;5279;42.048;24.638;2023-06-14T06:31:01;97261.09;;;23.67;100.00
10464;BME280;5279;42.048;24.638;2023-06-14T06:33:30;97267.09;;;23.69;100.00
10464;BME280;5279;42.048;24.638;2023-06-14T06:35:56;97268.25;;;23.73;100.00
10464;BME280;5279;42.048;24.638;2023-06-14T06:38:23;97262.59;;;23.86;100.00
10464;BME280;5279;42.048;24.638;2023-06-14T06:40:50;97260.84;;;23.80;100.00
10464;BME280;5279;42.048;24.638;2023-06-14T06:43:19;97267.75;;;24.00;100.00
10464;BME280;5279;42.048;24.638;2023-06-14T06:45:46;97263.88;;;24.07;100.00
10464;BME280;5279;42.048;24.638;2023-06-14T06:48:13;97280.47;;;24.11;100.00
10464;BME280;5279;42.048;24.638;2023-06-14T06:50:42;97277.44;;;24.19;100.00
10464;BME280;5279;42.048;24.638;2023-06-14T06:53:09;97273.63;;;24.08;100.00
10464;BME280;5279;42.048;24.638;2023-06-14T06:55:36;97271.66;;;24.15;100.00
10464;BME280;5279;42.048;24.638;2023-06-14T06:58:03;97276.69;;;24.23;100.00
10464;BME280;5279;42.048;24.638;2023-06-14T07:00:31;97276.72;;;24.12;100.00
10464;BME280;5279;42.048;24.638;2023-06-14T07:02:57;97276.34;;;24.20;99.51
10464;BME280;5279;42.048;24.638;2023-06-14T07:05:24;97275.03;;;24.34;99.88
10464;BME280;5279;42.048;24.638;2023-06-14T07:07:52;97269.41;;;24.24;98.49
10464;BME280;5279;42.048;24.638;2023-06-14T07:10:19;97279.28;;;24.30;97.77
10464;BME280;5279;42.048;24.638;2023-06-14T07:12:46;97277.03;;;24.27;100.00
10464;BME280;5279;42.048;24.638;2023-06-14T07:15:13;97277.63;;;24.29;99.92
10464;BME280;5279;42.048;24.638;2023-06-14T07:17:40;97278.31;;;24.36;98.61
10464;BME280;5279;42.048;24.638;2023-06-14T07:20:08;97280.63;;;24.44;97.88
10464;BME280;5279;42.048;24.638;2023-06-14T07:22:38;97273.13;;;24.46;94.88
10464;BME280;5279;42.048;24.638;2023-06-14T07:25:08;97264.38;;;24.44;95.09
10464;BME280;5279;42.048;24.638;2023-06-14T07:27:35;97267.47;;;24.36;94.41
10464;BME280;5279;42.048;24.638;2023-06-14T07:30:02;97258.41;;;24.42;99.03
10464;BME280;5279;42.048;24.638;2023-06-14T07:32:29;97266.75;;;24.52;97.14
10464;BME280;5279;42.048;24.638;2023-06-14T07:34:56;97258.34;;;24.65;96.05
10464;BME280;5279;42.048;24.638;2023-06-14T07:37:23;97275.75;;;24.97;91.44
10464;BME280;5279;42.048;24.638;2023-06-14T07:39:50;97275.97;;;25.08;89.63
10464;BME280;5279;42.048;24.638;2023-06-14T07:42:18;97272.63;;;24.89;88.29
10464;BME280;5279;42.048;24.638;2023-06-14T07:44:45;97270.16;;;24.87;86.27
10464;BME280;5279;42.048;24.638;2023-06-14T07:47:12;97265.31;;;24.78;85.63
10464;BME280;5279;42.048;24.638;2023-06-14T07:49:39;97275.56;;;24.87;86.43
10464;BME280;5279;42.048;24.638;2023-06-14T07:52:06;97263.38;;;25.02;86.99
10464;BME280;5279;42.048;24.638;2023-06-14T07:54:33;97268.25;;;25.16;83.39
10464;BME280;5279;42.048;24.638;2023-06-14T07:57:00;97278.94;;;25.39;82.39
10464;BME280;5279;42.048;24.638;2023-06-14T07:59:28;97276.63;;;25.48;81.13
10464;BME280;5279;42.048;24.638;2023-06-14T08:01:55;97275.75;;;25.59;79.84
10464;BME280;5279;42.048;24.638;2023-06-14T08:04:22;97283.53;;;25.72;76.05
10464;BME280;5279;42.048;24.638;2023-06-14T08:06:50;97284.22;;;25.79;73.14
10464;BME280;5279;42.048;24.638;2023-06-14T08:09:17;97279.97;;;25.50;74.83
10464;BME280;5279;42.048;24.638;2023-06-14T08:11:44;97287.66;;;25.91;74.60
10464;BME280;5279;42.048;24.638;2023-06-14T08:14:11;97285.44;;;26.27;74.22
10464;BME280;5279;42.048;24.638;2023-06-14T08:16:39;97286.28;;;26.49;70.93
10464;BME280;5279;42.048;24.638;2023-06-14T08:19:07;97291.91;;;26.64;66.33
10464;BME280;5279;42.048;24.638;2023-06-14T08:21:34;97290.13;;;26.53;66.66
10464;BME280;5279;42.048;24.638;2023-06-14T08:24:02;97287.59;;;26.68;69.58
10464;BME280;5279;42.048;24.638;2023-06-14T08:26:29;97288.72;;;26.72;70.04
10464;BME280;5279;42.048;24.638;2023-06-14T08:28:57;97293.28;;;26.88;68.57
10464;BME280;5279;42.048;24.638;2023-06-14T08:31:24;97291.63;;;26.87;70.72
10464;BME280;5279;42.048;24.638;2023-06-14T08:33:54;97294.31;;;26.82;70.48
10464;BME280;5279;42.048;24.638;2023-06-14T08:36:21;97300.19;;;26.74;70.39
10464;BME280;5279;42.048;24.638;2023-06-14T08:38:48;97303.28;;;26.61;70.99
10464;BME280;5279;42.048;24.638;2023-06-14T08:41:20;97305.47;;;26.42;74.63
10464;BME280;5279;42.048;24.638;2023-06-14T08:43:47;97300.13;;;26.26;75.31
10464;BME280;5279;42.048;24.638;2023-06-14T08:46:17;97310.47;;;26.29;73.46
10464;BME280;5279;42.048;24.638;2023-06-14T08:48:46;97310.91;;;26.21;73.45
10464;BME280;5279;42.048;24.638;2023-06-14T08:51:18;97314.97;;;26.01;73.94
10464;BME280;5279;42.048;24.638;2023-06-14T08:53:51;97317.72;;;26.06;74.17
10464;BME280;5279;42.048;24.638;2023-06-14T08:56:19;97312.84;;;25.87;73.16
10464;BME280;5279;42.048;24.638;2023-06-14T08:58:46;97308.72;;;25.84;74.82
10464;BME280;5279;42.048;24.638;2023-06-14T09:01:14;97302.47;;;25.67;76.69
10464;BME280;5279;42.048;24.638;2023-06-14T09:03:43;97305.34;;;25.44;79.46
10464;BME280;5279;42.048;24.638;2023-06-14T09:06:10;97305.38;;;25.16;82.89
10464;BME280;5279;42.048;24.638;2023-06-14T09:08:42;97304.69;;;25.09;83.94
10464;BME280;5279;42.048;24.638;2023-06-14T09:11:10;97298.28;;;24.98;83.57
10464;BME280;5279;42.048;24.638;2023-06-14T09:13:37;97310.22;;;24.85;86.01
10464;BME280;5279;42.048;24.638;2023-06-14T09:16:05;97302.75;;;24.64;88.13
10464;BME280;5279;42.048;24.638;2023-06-14T09:18:35;97301.22;;;24.57;89.03
10464;BME280;5279;42.048;24.638;2023-06-14T09:21:02;97297.59;;;24.51;91.09
10464;BME280;5279;42.048;24.638;2023-06-14T09:23:33;97293.69;;;24.59;88.96
10464;BME280;5279;42.048;24.638;2023-06-14T09:26:06;97295.53;;;24.70;88.58
10464;BME280;5279;42.048;24.638;2023-06-14T09:28:33;97294.22;;;24.72;91.69
10464;BME280;5279;42.048;24.638;2023-06-14T09:31:00;97294.47;;;24.71;93.12
10464;BME280;5279;42.048;24.638;2023-06-14T09:33:27;97295.19;;;24.66;91.82
10464;BME280;5279;42.048;24.638;2023-06-14T09:35:54;97295.19;;;24.66;93.55
10464;BME280;5279;42.048;24.638;2023-06-14T09:38:21;97295.56;;;24.58;91.38
10464;BME280;5279;42.048;24.638;2023-06-14T09:40:49;97294.03;;;24.62;90.72
10464;BME280;5279;42.048;24.638;2023-06-14T09:43:18;97292.00;;;24.69;89.18
10464;BME280;5279;42.048;24.638;2023-06-14T09:45:47;97298.41;;;24.91;87.44
10464;BME280;5279;42.048;24.638;2023-06-14T09:48:15;97298.94;;;25.05;90.35
10464;BME280;5279;42.048;24.638;2023-06-14T09:50:45;97288.63;;;25.19;86.58
10464;BME280;5279;42.048;24.638;2023-06-14T09:53:13;97300.28;;;25.36;86.60
10464;BME280;5279;42.048;24.638;2023-06-14T09:55:41;97301.75;;;25.55;81.78
10464;BME280;5279;42.048;24.638;2023-06-14T09:58:09;97294.25;;;25.79;81.51
10464;BME280;5279;42.048;24.638;2023-06-14T10:00:39;97297.69;;;25.91;78.59
10464;BME280;5279;42.048;24.638;2023-06-14T10:03:11;97301.94;;;26.03;78.67
10464;BME280;5279;42.048;24.638;2023-06-14T10:05:41;97303.06;;;26.24;74.90
10464;BME280;5279;42.048;24.638;2023-06-14T10:08:09;97289.31;;;26.52;74.25
10464;BME280;5279;42.048;24.638;2023-06-14T10:10:38;97281.16;;;26.74;71.29
10464;BME280;5279;42.048;24.638;2023-06-14T10:13:06;97287.66;;;26.95;71.55
10464;BME280;5279;42.048;24.638;2023-06-14T10:15:41;97281.38;;;27.21;72.56
10464;BME280;5279;42.048;24.638;2023-06-14T10:18:17;97287.34;;;27.45;69.43
10464;BME280;5279;42.048;24.638;2023-06-14T10:20:52;97280.41;;;27.64;66.04
10464;BME280;5279;42.048;24.638;2023-06-14T10:23:23;97278.59;;;27.75;64.60
10464;BME280;5279;42.048;24.638;2023-06-14T10:25:54;97273.88;;;27.60;66.63
10464;BME280;5279;42.048;24.638;2023-06-14T10:28:22;97279.25;;;27.55;70.31
10464;BME280;5279;42.048;24.638;2023-06-14T10:31:12;97274.22;;;26.83;71.38
10464;BME280;5279;42.048;24.638;2023-06-14T10:33:41;97269.63;;;26.89;74.13
10464;BME280;5279;42.048;24.638;2023-06-14T10:36:26;97268.59;;;27.22;71.95
10464;BME280;5279;42.048;24.638;2023-06-14T10:39:01;97272.03;;;27.39;67.42
10464;BME280;5279;42.048;24.638;2023-06-14T10:41:31;97273.03;;;27.59;65.88
10464;BME280;5279;42.048;24.638;2023-06-14T10:44:34;97281.91;;;27.82;65.20
10464;BME280;5279;42.048;24.638;2023-06-14T10:47:09;97271.50;;;28.10;63.84
10464;BME280;5279;42.048;24.638;2023-06-14T10:49:38;97268.56;;;28.27;62.50
10464;BME280;5279;42.048;24.638;2023-06-14T10:52:08;97261.44;;;28.16;62.42
10464;BME280;5279;42.048;24.638;2023-06-14T10:55:10;97260.44;;;28.32;61.60
10464;BME280;5279;42.048;24.638;2023-06-14T10:57:40;97258.94;;;28.04;60.89
10464;BME280;5279;42.048;24.638;2023-06-14T11:00:08;97260.72;;;27.94;61.64
10464;BME280;5279;42.048;24.638;2023-06-14T11:03:02;97253.25;;;27.69;63.23
10464;BME280;5279;42.048;24.638;2023-06-14T11:05:49;97255.16;;;27.74;63.93
10464;BME280;5279;42.048;24.638;2023-06-14T11:11:31;97246.69;;;28.07;60.60
10464;BME280;5279;42.048;24.638;2023-06-14T11:13:59;97254.16;;;28.32;58.32
10464;BME280;5279;42.048;24.638;2023-06-14T11:16:27;97243.34;;;28.52;58.01
10464;BME280;5279;42.048;24.638;2023-06-14T11:18:55;97250.97;;;28.50;57.03
10464;BME280;5279;42.048;24.638;2023-06-14T11:21:24;97245.81;;;28.53;57.34
10464;BME280;5279;42.048;24.638;2023-06-14T11:23:56;97236.59;;;28.64;54.86
10464;BME280;5279;42.048;24.638;2023-06-14T11:26:26;97235.81;;;28.74;54.74
10464;BME280;5279;42.048;24.638;2023-06-14T11:28:57;97226.75;;;28.01;56.54
10464;BME280;5279;42.048;24.638;2023-06-14T11:31:25;97234.00;;;27.86;56.97
10464;BME280;5279;42.048;24.638;2023-06-14T11:33:53;97235.56;;;28.13;55.81
10464;BME280;5279;42.048;24.638;2023-06-14T11:36:22;97238.72;;;28.52;55.78
10464;BME280;5279;42.048;24.638;2023-06-14T11:38:49;97227.38;;;28.86;55.68
10464;BME280;5279;42.048;24.638;2023-06-14T11:41:17;97230.91;;;28.91;54.86
10464;BME280;5279;42.048;24.638;2023-06-14T11:43:43;97223.88;;;29.10;56.23
10464;BME280;5279;42.048;24.638;2023-06-14T11:46:14;97217.34;;;29.26;52.42
10464;BME280;5279;42.048;24.638;2023-06-14T11:48:43;97212.44;;;29.44;50.98
10464;BME280;5279;42.048;24.638;2023-06-14T11:51:10;97210.19;;;28.75;52.50
10464;BME280;5279;42.048;24.638;2023-06-14T11:53:39;97203.56;;;28.61;54.98
10464;BME280;5279;42.048;24.638;2023-06-14T11:56:06;97198.94;;;28.61;55.17
10464;BME280;5279;42.048;24.638;2023-06-14T11:58:33;97183.31;;;28.32;55.76
10464;BME280;5279;42.048;24.638;2023-06-14T12:01:00;97196.09;;;28.26;53.76
10464;BME280;5279;42.048;24.638;2023-06-14T12:03:29;97192.09;;;28.54;54.81
10464;BME280;5279;42.048;24.638;2023-06-14T12:06:04;97193.81;;;28.80;53.96
10464;BME280;5279;42.048;24.638;2023-06-14T12:08:33;97191.66;;;28.92;52.92
10464;BME280;5279;42.048;24.638;2023-06-14T12:11:05;97183.47;;;29.12;52.18
10464;BME280;5279;42.048;24.638;2023-06-14T12:13:34;97187.56;;;28.95;53.71
10464;BME280;5279;42.048;24.638;2023-06-14T12:16:02;97175.56;;;28.91;53.68
10464;BME280;5279;42.048;24.638;2023-06-14T12:18:33;97185.66;;;28.95;52.91
10464;BME280;5279;42.048;24.638;2023-06-14T12:21:01;97183.19;;;28.89;50.14
10464;BME280;5279;42.048;24.638;2023-06-14T12:23:39;97172.53;;;28.82;50.18
10464;BME280;5279;42.048;24.638;2023-06-14T12:26:07;97174.75;;;28.90;50.64
10464;BME280;5279;42.048;24.638;2023-06-14T12:28:34;97173.63;;;28.76;54.93
10464;BME280;5279;42.048;24.638;2023-06-14T12:31:01;97169.72;;;28.47;58.30
10464;BME280;5279;42.048;24.638;2023-06-14T12:33:28;97165.06;;;28.37;59.07
10464;BME280;5279;42.048;24.638;2023-06-14T12:35:55;97167.81;;;28.52;59.23
10464;BME280;5279;42.048;24.638;2023-06-14T12:38:23;97153.41;;;28.57;60.27
10464;BME280;5279;42.048;24.638;2023-06-14T12:40:49;97156.09;;;28.42;58.92
10464;BME280;5279;42.048;24.638;2023-06-14T12:43:18;97141.38;;;28.53;59.13
10464;BME280;5279;42.048;24.638;2023-06-14T12:45:45;97142.50;;;28.57;59.49
10464;BME280;5279;42.048;24.638;2023-06-14T12:48:11;97142.22;;;28.58;58.60
10464;BME280;5279;42.048;24.638;2023-06-14T12:50:38;97143.50;;;28.26;58.49
10464;BME280;5279;42.048;24.638;2023-06-14T12:53:05;97141.31;;;28.28;59.81
10464;BME280;5279;42.048;24.638;2023-06-14T12:55:32;97138.53;;;28.07;59.63
10464;BME280;5279;42.048;24.638;2023-06-14T12:57:59;97133.00;;;27.97;59.34
10464;BME280;5279;42.048;24.638;2023-06-14T13:00:27;97146.00;;;27.75;59.56
10464;BME280;5279;42.048;24.638;2023-06-14T13:02:55;97138.31;;;27.62;61.89
10464;BME280;5279;42.048;24.638;2023-06-14T13:05:22;97139.88;;;27.48;61.43